sensor_id;sensor_type;location;lat;lon;timestamp;pressure;altitude;pressure_sealevel;temperature;humidity
81151;BME280;70629;-26.026;27.976;2024-02-26T00:00:08;86317.97;;;21.11;69.48
81151;BME280;70629;-26.026;27.976;2024-02-26T00:00:49;86319.56;;;21.32;68.75
81151;BME280;70629;-26.026;27.976;2024-02-26T00:01:32;86314.03;;;21.26;68.94
81151;BME280;70629;-26.026;27.976;2024-02-26T00:02:13;86321.63;;;21.32;68.33
81151;BME280;70629;-26.026;27.976;2024-02-26T00:02:53;86318.59;;;21.03;69.31
81151;BME280;70629;-26.026;27.976;2024-02-26T00:03:33;86325.41;;;21.02;69.98
81151;BME280;70629;-26.026;27.976;2024-02-26T00:04:15;86323.19;;;20.85;71.19
81151;BME280;70629;-26.026;27.976;2024-02-26T00:04:55;86319.78;;;20.84;71.19
81151;BME280;70629;-26.026;27.976;2024-02-26T00:05:34;86328.63;;;20.83;71.36
81151;BME280;70629;-26.026;27.976;2024-02-26T00:06:15;86323.19;;;20.87;71.01
81151;BME280;70629;-26.026;27.976;2024-02-26T00:06:55;86323.97;;;20.95;70.70
81151;BME280;70629;-26.026;27.976;2024-02-26T00:07:35;86319.97;;;21.07;70.46
81151;BME280;70629;-26.026;27.976;2024-02-26T00:08:15;86322.19;;;21.18;69.82
81151;BME280;70629;-26.026;27.976;2024-02-26T00:08:55;86321.59;;;21.30;68.56
81151;BME280;70629;-26.026;27.976;2024-02-26T00:09:35;86317.66;;;21.49;68.11
81151;BME280;70629;-26.026;27.976;2024-02-26T00:10:16;86321.72;;;21.44;68.15
81151;BME280;70629;-26.026;27.976;2024-02-26T00:10:56;86313.84;;;21.10;69.34
81151;BME280;70629;-26.026;27.976;2024-02-26T00:11:36;86311.69;;;20.96;70.12
81151;BME280;70629;-26.026;27.976;2024-02-26T00:12:17;86313.78;;;21.02;69.87
81151;BME280;70629;-26.026;27.976;2024-02-26T00:12:57;86313.81;;;21.04;69.30
81151;BME280;70629;-26.026;27.976;2024-02-26T00:13:36;86323.53;;;21.19;69.43
81151;BME280;70629;-26.026;27.976;2024-02-26T00:14:16;86317.22;;;21.02;69.55
81151;BME280;70629;-26.026;27.976;2024-02-26T00:14:56;86313.81;;;21.04;69.14
81151;BME280;70629;-26.026;27.976;2024-02-26T00:15:37;86315.84;;;21.03;69.21
81151;BME280;70629;-26.026;27.976;2024-02-26T00:16:17;86306.91;;;20.97;69.86
81151;BME280;70629;-26.026;27.976;2024-02-26T00:16:57;86311.03;;;21.00;69.96
81151;BME280;70629;-26.026;27.976;2024-02-26T00:17:37;86311.88;;;21.15;69.75
81151;BME280;70629;-26.026;27.976;2024-02-26T00:18:17;86313.13;;;21.06;69.39
81151;BME280;70629;-26.026;27.976;2024-02-26T00:18:57;86317.25;;;21.05;69.81
81151;BME280;70629;-26.026;27.976;2024-02-26T00:19:37;86311.66;;;20.94;69.65
81151;BME280;70629;-26.026;27.976;2024-02-26T00:20:17;86319.19;;;20.94;70.02
81151;BME280;70629;-26.026;27.976;2024-02-26T00:20:57;86313.06;;;20.97;70.15
81151;BME280;70629;-26.026;27.976;2024-02-26T00:21:40;86318.50;;;20.93;70.42
81151;BME280;70629;-26.026;27.976;2024-02-26T00:22:21;86311.75;;;21.02;69.99
81151;BME280;70629;-26.026;27.976;2024-02-26T00:23:02;86313.97;;;21.20;69.43
81151;BME280;70629;-26.026;27.976;2024-02-26T00:23:42;86312.44;;;21.03;69.17
81151;BME280;70629;-26.026;27.976;2024-02-26T00:24:21;86318.06;;;21.19;68.62
81151;BME280;70629;-26.026;27.976;2024-02-26T00:25:02;86311.16;;;21.12;68.41
81151;BME280;70629;-26.026;27.976;2024-02-26T00:25:41;86311.69;;;20.96;68.95
81151;BME280;70629;-26.026;27.976;2024-02-26T00:26:22;86310.22;;;20.87;70.00
81151;BME280;70629;-26.026;27.976;2024-02-26T00:27:02;86312.84;;;20.77;70.06
81151;BME280;70629;-26.026;27.976;2024-02-26T00:27:42;86318.97;;;20.72;70.87
81151;BME280;70629;-26.026;27.976;2024-02-26T00:28:24;86316.34;;;20.84;70.35
81151;BME280;70629;-26.026;27.976;2024-02-26T00:29:08;86321.16;;;20.85;71.34
81151;BME280;70629;-26.026;27.976;2024-02-26T00:29:48;86321.31;;;21.03;70.79
81151;BME280;70629;-26.026;27.976;2024-02-26T00:30:28;86312.31;;;20.91;70.70
81151;BME280;70629;-26.026;27.976;2024-02-26T00:31:08;86309.41;;;20.75;70.37
81151;BME280;70629;-26.026;27.976;2024-02-26T00:31:48;86306.53;;;20.61;70.58
81151;BME280;70629;-26.026;27.976;2024-02-26T00:32:28;86310.16;;;20.79;70.29
81151;BME280;70629;-26.026;27.976;2024-02-26T00:33:08;86312.38;;;20.97;69.94
81151;BME280;70629;-26.026;27.976;2024-02-26T00:33:48;86306.16;;;20.92;69.62
81151;BME280;70629;-26.026;27.976;2024-02-26T00:34:29;86315.19;;;21.07;69.28
81151;BME280;70629;-26.026;27.976;2024-02-26T00:35:09;86315.91;;;21.08;69.30
81151;BME280;70629;-26.026;27.976;2024-02-26T00:35:49;86317.25;;;21.05;69.24
81151;BME280;70629;-26.026;27.976;2024-02-26T00:36:29;86321.53;;;21.22;68.87
81151;BME280;70629;-26.026;27.976;2024-02-26T00:37:08;86312.41;;;20.99;69.10
81151;BME280;70629;-26.026;27.976;2024-02-26T00:37:48;86312.19;;;20.79;69.46
81151;BME280;70629;-26.026;27.976;2024-02-26T00:38:28;86307.22;;;20.61;70.22
81151;BME280;70629;-26.026;27.976;2024-02-26T00:39:08;86309.78;;;20.47;70.92
81151;BME280;70629;-26.026;27.976;2024-02-26T00:39:48;86311.47;;;20.74;70.13
81151;BME280;70629;-26.026;27.976;2024-02-26T00:40:28;86315.03;;;20.91;70.00
81151;BME280;70629;-26.026;27.976;2024-02-26T00:41:08;86310.53;;;21.16;68.98
81151;BME280;70629;-26.026;27.976;2024-02-26T00:41:48;86312.66;;;21.25;67.93
81151;BME280;70629;-26.026;27.976;2024-02-26T00:42:28;86307.69;;;21.08;68.54
81151;BME280;70629;-26.026;27.976;2024-02-26T00:43:07;86312.38;;;20.95;69.04
81151;BME280;70629;-26.026;27.976;2024-02-26T00:43:47;86312.50;;;21.09;69.13
81151;BME280;70629;-26.026;27.976;2024-02-26T00:44:27;86311.28;;;21.24;69.05
81151;BME280;70629;-26.026;27.976;2024-02-26T00:45:07;86307.78;;;21.16;68.44
81151;BME280;70629;-26.026;27.976;2024-02-26T00:45:48;86309.66;;;21.01;69.10
81151;BME280;70629;-26.026;27.976;2024-02-26T00:46:28;86313.25;;;21.14;68.70
81151;BME280;70629;-26.026;27.976;2024-02-26T00:47:07;86309.03;;;21.07;68.95
81151;BME280;70629;-26.026;27.976;2024-02-26T00:47:47;86306.88;;;20.93;69.67
81151;BME280;70629;-26.026;27.976;2024-02-26T00:48:28;86312.16;;;20.77;70.59
81151;BME280;70629;-26.026;27.976;2024-02-26T00:49:08;86310.94;;;20.92;70.85
81151;BME280;70629;-26.026;27.976;2024-02-26T00:49:48;86307.63;;;21.01;70.39
81151;BME280;70629;-26.026;27.976;2024-02-26T00:50:28;86304.19;;;20.99;70.21
81151;BME280;70629;-26.026;27.976;2024-02-26T00:51:08;86308.28;;;20.98;70.41
81151;BME280;70629;-26.026;27.976;2024-02-26T00:51:48;86310.47;;;21.12;69.72
81151;BME280;70629;-26.026;27.976;2024-02-26T00:52:28;86309.28;;;21.31;68.99
81151;BME280;70629;-26.026;27.976;2024-02-26T00:53:08;86309.91;;;21.25;68.62
81151;BME280;70629;-26.026;27.976;2024-02-26T00:53:47;86305.13;;;21.26;68.85
81151;BME280;70629;-26.026;27.976;2024-02-26T00:54:27;86308.56;;;21.26;69.29
81151;BME280;70629;-26.026;27.976;2024-02-26T00:55:08;86305.56;;;20.98;69.24
81151;BME280;70629;-26.026;27.976;2024-02-26T00:55:48;86307.63;;;21.01;68.78
81151;BME280;70629;-26.026;27.976;2024-02-26T00:56:28;86307.41;;;20.81;70.08
81151;BME280;70629;-26.026;27.976;2024-02-26T00:57:07;86305.25;;;20.70;70.33
81151;BME280;70629;-26.026;27.976;2024-02-26T00:57:48;86300.31;;;20.54;71.03
81151;BME280;70629;-26.026;27.976;2024-02-26T00:58:27;86303.28;;;20.78;70.97
81151;BME280;70629;-26.026;27.976;2024-02-26T00:59:07;86308.91;;;20.90;69.85
81151;BME280;70629;-26.026;27.976;2024-02-26T00:59:48;86314.41;;;20.94;69.18
81151;BME280;70629;-26.026;27.976;2024-02-26T01:00:28;86307.56;;;20.95;69.37
81151;BME280;70629;-26.026;27.976;2024-02-26T01:01:08;86313.91;;;21.14;68.97
81151;BME280;70629;-26.026;27.976;2024-02-26T01:01:48;86304.88;;;20.99;69.13
81151;BME280;70629;-26.026;27.976;2024-02-26T01:02:28;86304.75;;;20.87;70.01
81151;BME280;70629;-26.026;27.976;2024-02-26T01:03:08;86306.06;;;20.82;70.19
81151;BME280;70629;-26.026;27.976;2024-02-26T01:03:49;86299.34;;;20.95;70.15
81151;BME280;70629;-26.026;27.976;2024-02-26T01:04:29;86309.56;;;20.91;70.11
81151;BME280;70629;-26.026;27.976;2024-02-26T01:05:09;86301.22;;;20.77;70.95
81151;BME280;70629;-26.026;27.976;2024-02-26T01:05:50;86301.94;;;20.81;70.83
81151;BME280;70629;-26.026;27.976;2024-02-26T01:06:33;86308.22;;;20.90;70.57
81151;BME280;70629;-26.026;27.976;2024-02-26T01:07:12;86306.31;;;21.05;70.10
81151;BME280;70629;-26.026;27.976;2024-02-26T01:07:52;86299.44;;;21.03;69.17
81151;BME280;70629;-26.026;27.976;2024-02-26T01:08:32;86300.19;;;21.08;69.12
81151;BME280;70629;-26.026;27.976;2024-02-26T01:09:15;86303.66;;;21.15;69.30
81151;BME280;70629;-26.026;27.976;2024-02-26T01:09:56;86303.72;;;21.19;68.55
81151;BME280;70629;-26.026;27.976;2024-02-26T01:10:36;86301.56;;;21.11;68.56
81151;BME280;70629;-26.026;27.976;2024-02-26T01:11:17;86305.56;;;20.98;68.83
81151;BME280;70629;-26.026;27.976;2024-02-26T01:11:56;86302.88;;;21.06;69.29
81151;BME280;70629;-26.026;27.976;2024-02-26T01:12:36;86300.13;;;21.02;68.86
81151;BME280;70629;-26.026;27.976;2024-02-26T01:13:16;86302.81;;;20.98;69.36
81151;BME280;70629;-26.026;27.976;2024-02-26T01:13:56;86304.19;;;20.99;69.45
81151;BME280;70629;-26.026;27.976;2024-02-26T01:14:36;86305.19;;;20.64;70.55
81151;BME280;70629;-26.026;27.976;2024-02-26T01:15:16;86312.53;;;20.49;71.59
81151;BME280;70629;-26.026;27.976;2024-02-26T01:15:58;86303.00;;;20.50;71.31
81151;BME280;70629;-26.026;27.976;2024-02-26T01:16:40;86304.50;;;20.61;70.48
81151;BME280;70629;-26.026;27.976;2024-02-26T01:17:20;86305.09;;;20.55;70.00
81151;BME280;70629;-26.026;27.976;2024-02-26T01:17:59;86305.03;;;20.49;70.31
81151;BME280;70629;-26.026;27.976;2024-02-26T01:18:39;86311.41;;;20.70;70.04
81151;BME280;70629;-26.026;27.976;2024-02-26T01:19:20;86311.97;;;20.58;70.55
81151;BME280;70629;-26.026;27.976;2024-02-26T01:20:00;86316.16;;;20.68;70.75
81151;BME280;70629;-26.026;27.976;2024-02-26T01:20:40;86316.91;;;20.74;70.19
81151;BME280;70629;-26.026;27.976;2024-02-26T01:21:20;86316.88;;;20.72;69.99
81151;BME280;70629;-26.026;27.976;2024-02-26T01:22:01;86310.63;;;20.59;70.25
81151;BME280;70629;-26.026;27.976;2024-02-26T01:22:42;86316.69;;;20.52;71.50
81151;BME280;70629;-26.026;27.976;2024-02-26T01:23:22;86316.13;;;20.64;70.77
81151;BME280;70629;-26.026;27.976;2024-02-26T01:24:02;86316.69;;;20.52;71.44
81151;BME280;70629;-26.026;27.976;2024-02-26T01:24:42;86318.78;;;20.55;71.08
81151;BME280;70629;-26.026;27.976;2024-02-26T01:25:22;86319.47;;;20.56;71.38
81151;BME280;70629;-26.026;27.976;2024-02-26T01:26:01;86315.34;;;20.55;71.49
81151;BME280;70629;-26.026;27.976;2024-02-26T01:26:42;86316.88;;;20.70;71.05
81151;BME280;70629;-26.026;27.976;2024-02-26T01:27:23;86316.72;;;20.56;71.09
81151;BME280;70629;-26.026;27.976;2024-02-26T01:28:06;86319.63;;;20.70;70.82
81151;BME280;70629;-26.026;27.976;2024-02-26T01:28:45;86325.16;;;20.78;69.94
81151;BME280;70629;-26.026;27.976;2024-02-26T01:29:25;86322.31;;;20.68;69.56
81151;BME280;70629;-26.026;27.976;2024-02-26T01:30:05;86322.28;;;20.64;70.04
81151;BME280;70629;-26.026;27.976;2024-02-26T01:30:45;86317.50;;;20.65;70.09
81151;BME280;70629;-26.026;27.976;2024-02-26T01:31:25;86316.88;;;20.72;69.99
81151;BME280;70629;-26.026;27.976;2024-02-26T01:32:06;86321.16;;;20.87;69.50
81151;BME280;70629;-26.026;27.976;2024-02-26T01:32:46;86311.44;;;20.72;70.32
81151;BME280;70629;-26.026;27.976;2024-02-26T01:33:26;86319.41;;;20.52;71.11
81151;BME280;70629;-26.026;27.976;2024-02-26T01:34:06;86317.72;;;20.27;71.75
81151;BME280;70629;-26.026;27.976;2024-02-26T01:34:46;86316.19;;;20.13;71.65
81151;BME280;70629;-26.026;27.976;2024-02-26T01:35:26;86322.25;;;20.08;72.09
81151;BME280;70629;-26.026;27.976;2024-02-26T01:36:06;86322.50;;;20.26;71.21
81151;BME280;70629;-26.026;27.976;2024-02-26T01:36:46;86323.97;;;20.33;71.27
81151;BME280;70629;-26.026;27.976;2024-02-26T01:37:26;86320.69;;;20.43;71.21
81151;BME280;70629;-26.026;27.976;2024-02-26T01:38:06;86316.56;;;20.44;71.32
81151;BME280;70629;-26.026;27.976;2024-02-26T01:38:46;86322.78;;;20.48;71.14
81151;BME280;70629;-26.026;27.976;2024-02-26T01:39:26;86328.28;;;20.50;71.00
81151;BME280;70629;-26.026;27.976;2024-02-26T01:40:08;86322.16;;;20.52;71.10
81151;BME280;70629;-26.026;27.976;2024-02-26T01:40:49;86324.94;;;20.56;70.61
81151;BME280;70629;-26.026;27.976;2024-02-26T01:41:29;86323.03;;;20.73;70.01
81151;BME280;70629;-26.026;27.976;2024-02-26T01:42:08;86323.41;;;20.45;71.32
81151;BME280;70629;-26.026;27.976;2024-02-26T01:42:49;86322.41;;;20.20;72.02
81151;BME280;70629;-26.026;27.976;2024-02-26T01:43:29;86322.47;;;20.24;71.72
81151;BME280;70629;-26.026;27.976;2024-02-26T01:44:12;86322.81;;;20.50;71.36
81151;BME280;70629;-26.026;27.976;2024-02-26T01:44:52;86322.94;;;20.63;70.21
81151;BME280;70629;-26.026;27.976;2024-02-26T01:45:32;86331.75;;;20.55;69.86
81151;BME280;70629;-26.026;27.976;2024-02-26T01:46:14;86325.00;;;20.62;69.93
81151;BME280;70629;-26.026;27.976;2024-02-26T01:46:54;86322.41;;;20.76;69.17
81151;BME280;70629;-26.026;27.976;2024-02-26T01:47:35;86327.75;;;20.64;69.59
81151;BME280;70629;-26.026;27.976;2024-02-26T01:48:15;86322.84;;;20.52;70.63
81151;BME280;70629;-26.026;27.976;2024-02-26T01:48:55;86328.25;;;20.48;70.66
81151;BME280;70629;-26.026;27.976;2024-02-26T01:49:35;86322.75;;;20.46;70.53
81151;BME280;70629;-26.026;27.976;2024-02-26T01:50:17;86330.28;;;20.46;71.18
81151;BME280;70629;-26.026;27.976;2024-02-26T01:50:57;86323.50;;;20.53;71.16
81151;BME280;70629;-26.026;27.976;2024-02-26T01:51:38;86328.19;;;20.42;71.63
81151;BME280;70629;-26.026;27.976;2024-02-26T01:52:19;86323.03;;;20.14;71.85
81151;BME280;70629;-26.026;27.976;2024-02-26T01:53:01;86337.41;;;20.17;72.29
81151;BME280;70629;-26.026;27.976;2024-02-26T01:53:41;86330.81;;;20.34;72.24
81151;BME280;70629;-26.026;27.976;2024-02-26T01:54:21;86329.44;;;20.35;71.38
81151;BME280;70629;-26.026;27.976;2024-02-26T01:55:01;86332.66;;;20.20;72.09
81151;BME280;70629;-26.026;27.976;2024-02-26T01:55:42;86327.25;;;20.24;71.91
81151;BME280;70629;-26.026;27.976;2024-02-26T01:56:22;86330.81;;;20.34;71.62
81151;BME280;70629;-26.026;27.976;2024-02-26T01:57:08;86327.84;;;20.18;72.23
81151;BME280;70629;-26.026;27.976;2024-02-26T01:57:50;86326.28;;;20.03;72.44
81151;BME280;70629;-26.026;27.976;2024-02-26T01:58:32;86322.91;;;20.04;72.66
81151;BME280;70629;-26.026;27.976;2024-02-26T01:59:13;86322.81;;;19.98;72.56
81151;BME280;70629;-26.026;27.976;2024-02-26T01:59:54;86328.97;;;19.99;72.37
81151;BME280;70629;-26.026;27.976;2024-02-26T02:00:35;86328.41;;;20.10;72.25
81151;BME280;70629;-26.026;27.976;2024-02-26T02:01:15;86331.84;;;20.11;72.27
81151;BME280;70629;-26.026;27.976;2024-02-26T02:01:58;86324.69;;;20.36;71.94
81151;BME280;70629;-26.026;27.976;2024-02-26T02:02:41;86323.53;;;20.55;71.00
81151;BME280;70629;-26.026;27.976;2024-02-26T02:03:21;86326.28;;;20.55;70.34
81151;BME280;70629;-26.026;27.976;2024-02-26T02:04:02;86326.91;;;20.51;69.81
81151;BME280;70629;-26.026;27.976;2024-02-26T02:04:42;86330.34;;;20.54;70.26
81151;BME280;70629;-26.026;27.976;2024-02-26T02:05:23;86329.09;;;20.63;69.96
81151;BME280;70629;-26.026;27.976;2024-02-26T02:06:04;86322.41;;;20.76;69.07
81151;BME280;70629;-26.026;27.976;2024-02-26T02:06:45;86329.25;;;20.75;69.15
81151;BME280;70629;-26.026;27.976;2024-02-26T02:07:26;86329.06;;;20.59;70.30
81151;BME280;70629;-26.026;27.976;2024-02-26T02:08:06;86327.31;;;20.30;71.09
81151;BME280;70629;-26.026;27.976;2024-02-26T02:08:46;86330.31;;;20.50;71.14
81151;BME280;70629;-26.026;27.976;2024-02-26T02:09:27;86331.94;;;20.71;70.41
81151;BME280;70629;-26.026;27.976;2024-02-26T02:10:08;86330.72;;;20.86;70.00
81151;BME280;70629;-26.026;27.976;2024-02-26T02:10:49;86331.78;;;20.59;70.10
81151;BME280;70629;-26.026;27.976;2024-02-26T02:11:29;86335.50;;;20.30;70.94
81151;BME280;70629;-26.026;27.976;2024-02-26T02:12:09;86337.00;;;20.37;71.13
81151;BME280;70629;-26.026;27.976;2024-02-26T02:12:50;86331.66;;;20.47;70.72
81151;BME280;70629;-26.026;27.976;2024-02-26T02:13:30;86333.13;;;20.56;70.37
81151;BME280;70629;-26.026;27.976;2024-02-26T02:14:10;86331.00;;;20.50;70.52
81151;BME280;70629;-26.026;27.976;2024-02-26T02:14:50;86329.06;;;20.59;70.61
81151;BME280;70629;-26.026;27.976;2024-02-26T02:15:30;86322.44;;;20.78;70.12
81151;BME280;70629;-26.026;27.976;2024-02-26T02:16:11;86325.78;;;20.71;70.21
81151;BME280;70629;-26.026;27.976;2024-02-26T02:16:50;86320.81;;;20.55;70.81
81151;BME280;70629;-26.026;27.976;2024-02-26T02:17:31;86328.28;;;20.50;71.19
81151;BME280;70629;-26.026;27.976;2024-02-26T02:18:11;86318.69;;;20.47;71.14
81151;BME280;70629;-26.026;27.976;2024-02-26T02:18:51;86321.91;;;20.32;71.61
81151;BME280;70629;-26.026;27.976;2024-02-26T02:19:31;86320.31;;;20.14;71.61
81151;BME280;70629;-26.026;27.976;2024-02-26T02:20:23;86328.50;;;20.16;71.98
81151;BME280;70629;-26.026;27.976;2024-02-26T02:21:03;86316.16;;;20.11;72.75
81151;BME280;70629;-26.026;27.976;2024-02-26T02:21:44;86318.91;;;20.13;72.77
81151;BME280;70629;-26.026;27.976;2024-02-26T02:22:25;86322.25;;;20.08;72.54
81151;BME280;70629;-26.026;27.976;2024-02-26T02:23:05;86325.69;;;20.10;72.13
81151;BME280;70629;-26.026;27.976;2024-02-26T02:23:44;86325.53;;;19.98;72.69
81151;BME280;70629;-26.026;27.976;2024-02-26T02:24:25;86323.47;;;19.97;72.96
81151;BME280;70629;-26.026;27.976;2024-02-26T02:25:05;86324.16;;;19.97;73.00
81151;BME280;70629;-26.026;27.976;2024-02-26T02:25:45;86327.56;;;19.98;73.04
81151;BME280;70629;-26.026;27.976;2024-02-26T02:26:25;86326.94;;;20.01;72.84
81151;BME280;70629;-26.026;27.976;2024-02-26T02:27:06;86331.31;;;20.23;72.24
81151;BME280;70629;-26.026;27.976;2024-02-26T02:27:46;86324.56;;;20.30;72.17
81151;BME280;70629;-26.026;27.976;2024-02-26T02:28:26;86321.84;;;20.28;72.06
81151;BME280;70629;-26.026;27.976;2024-02-26T02:29:07;86322.50;;;20.26;72.52
81151;BME280;70629;-26.026;27.976;2024-02-26T02:29:49;86333.28;;;20.14;72.37
81151;BME280;70629;-26.026;27.976;2024-02-26T02:30:29;86331.84;;;20.09;72.55
81151;BME280;70629;-26.026;27.976;2024-02-26T02:31:10;86331.19;;;20.12;73.08
81151;BME280;70629;-26.026;27.976;2024-02-26T02:31:50;86328.31;;;20.02;72.57
81151;BME280;70629;-26.026;27.976;2024-02-26T02:32:30;86325.97;;;20.31;71.68
81151;BME280;70629;-26.026;27.976;2024-02-26T02:33:11;86331.25;;;20.16;71.91
81151;BME280;70629;-26.026;27.976;2024-02-26T02:33:51;86330.50;;;20.12;71.67
81151;BME280;70629;-26.026;27.976;2024-02-26T02:34:32;86329.66;;;19.99;72.05
81151;BME280;70629;-26.026;27.976;2024-02-26T02:35:12;86330.25;;;19.94;71.85
81151;BME280;70629;-26.026;27.976;2024-02-26T02:35:52;86324.28;;;20.07;72.02
81151;BME280;70629;-26.026;27.976;2024-02-26T02:36:34;86325.66;;;20.06;72.09
81151;BME280;70629;-26.026;27.976;2024-02-26T02:37:14;86327.22;;;20.22;71.88
81151;BME280;70629;-26.026;27.976;2024-02-26T02:37:56;86321.69;;;20.17;71.86
81151;BME280;70629;-26.026;27.976;2024-02-26T02:38:37;86325.44;;;20.42;70.97
81151;BME280;70629;-26.026;27.976;2024-02-26T02:39:17;86328.88;;;20.43;70.40
81151;BME280;70629;-26.026;27.976;2024-02-26T02:39:57;86325.88;;;20.25;70.94
81151;BME280;70629;-26.026;27.976;2024-02-26T02:40:37;86326.59;;;20.27;70.63
81151;BME280;70629;-26.026;27.976;2024-02-26T02:41:17;86321.38;;;20.45;70.89
81151;BME280;70629;-26.026;27.976;2024-02-26T02:41:57;86325.88;;;20.25;70.92
81151;BME280;70629;-26.026;27.976;2024-02-26T02:42:37;86321.78;;;20.26;71.35
81151;BME280;70629;-26.026;27.976;2024-02-26T02:43:17;86323.28;;;20.33;70.99
81151;BME280;70629;-26.026;27.976;2024-02-26T02:43:57;86319.38;;;20.50;70.42
81151;BME280;70629;-26.026;27.976;2024-02-26T02:44:37;86319.53;;;20.62;69.91
81151;BME280;70629;-26.026;27.976;2024-02-26T02:45:17;86326.06;;;20.37;70.44
81151;BME280;70629;-26.026;27.976;2024-02-26T02:45:57;86328.16;;;20.40;70.21
81151;BME280;70629;-26.026;27.976;2024-02-26T02:46:37;86323.22;;;20.29;71.24
81151;BME280;70629;-26.026;27.976;2024-02-26T02:47:17;86323.22;;;20.29;71.26
81151;BME280;70629;-26.026;27.976;2024-02-26T02:47:56;86332.41;;;20.01;71.38
81151;BME280;70629;-26.026;27.976;2024-02-26T02:48:37;86332.66;;;20.20;71.83
81151;BME280;70629;-26.026;27.976;2024-02-26T02:49:17;86321.13;;;20.27;71.25
81151;BME280;70629;-26.026;27.976;2024-02-26T02:49:57;86325.22;;;20.26;71.03
81151;BME280;70629;-26.026;27.976;2024-02-26T02:50:37;86323.66;;;20.09;71.96
81151;BME280;70629;-26.026;27.976;2024-02-26T02:51:17;86322.81;;;19.96;72.72
81151;BME280;70629;-26.026;27.976;2024-02-26T02:51:57;86330.94;;;19.94;72.25
81151;BME280;70629;-26.026;27.976;2024-02-26T02:52:37;86330.09;;;19.82;72.55
81151;BME280;70629;-26.026;27.976;2024-02-26T02:53:17;86334.63;;;19.65;72.52
81151;BME280;70629;-26.026;27.976;2024-02-26T02:53:58;86328.13;;;19.88;72.40
81151;BME280;70629;-26.026;27.976;2024-02-26T02:54:38;86324.22;;;20.01;71.74
81151;BME280;70629;-26.026;27.976;2024-02-26T02:55:19;86323.59;;;20.07;71.17
81151;BME280;70629;-26.026;27.976;2024-02-26T02:55:59;86322.34;;;20.16;70.65
81151;BME280;70629;-26.026;27.976;2024-02-26T02:56:39;86318.22;;;20.13;70.98
81151;BME280;70629;-26.026;27.976;2024-02-26T02:57:19;86312.78;;;20.13;70.97
81151;BME280;70629;-26.026;27.976;2024-02-26T02:57:59;86318.94;;;20.15;71.30
81151;BME280;70629;-26.026;27.976;2024-02-26T02:58:40;86314.94;;;20.23;71.15
81151;BME280;70629;-26.026;27.976;2024-02-26T02:59:20;86315.09;;;20.33;70.87
81151;BME280;70629;-26.026;27.976;2024-02-26T03:00:00;86315.63;;;20.23;70.69
81151;BME280;70629;-26.026;27.976;2024-02-26T03:00:40;86319.88;;;20.34;70.17
81151;BME280;70629;-26.026;27.976;2024-02-26T03:01:20;86317.06;;;20.28;70.78
81151;BME280;70629;-26.026;27.976;2024-02-26T03:02:00;86312.44;;;20.41;70.23
81151;BME280;70629;-26.026;27.976;2024-02-26T03:02:40;86315.03;;;20.29;71.16
81151;BME280;70629;-26.026;27.976;2024-02-26T03:03:19;86310.91;;;20.30;71.02
81151;BME280;70629;-26.026;27.976;2024-02-26T03:04:00;86314.88;;;20.19;71.37
81151;BME280;70629;-26.026;27.976;2024-02-26T03:04:40;86317.81;;;20.33;70.97
81151;BME280;70629;-26.026;27.976;2024-02-26T03:05:20;86318.44;;;20.29;70.98
81151;BME280;70629;-26.026;27.976;2024-02-26T03:06:00;86321.97;;;20.38;71.00
81151;BME280;70629;-26.026;27.976;2024-02-26T03:06:40;86318.69;;;20.49;70.58
81151;BME280;70629;-26.026;27.976;2024-02-26T03:07:20;86322.16;;;20.52;69.94
81151;BME280;70629;-26.026;27.976;2024-02-26T03:08:00;86327.66;;;20.56;69.82
81151;BME280;70629;-26.026;27.976;2024-02-26T03:08:43;86323.19;;;20.27;70.44
81151;BME280;70629;-26.026;27.976;2024-02-26T03:09:23;86330.31;;;19.98;71.32
81151;BME280;70629;-26.026;27.976;2024-02-26T03:10:04;86326.09;;;19.89;71.96
81151;BME280;70629;-26.026;27.976;2024-02-26T03:10:44;86327.06;;;20.11;71.61
81151;BME280;70629;-26.026;27.976;2024-02-26T03:11:24;86321.31;;;19.89;71.99
81151;BME280;70629;-26.026;27.976;2024-02-26T03:12:05;86332.28;;;19.93;72.38
81151;BME280;70629;-26.026;27.976;2024-02-26T03:12:46;86326.84;;;19.93;72.45
81151;BME280;70629;-26.026;27.976;2024-02-26T03:13:25;86326.88;;;19.95;72.05
81151;BME280;70629;-26.026;27.976;2024-02-26T03:14:06;86334.28;;;19.89;72.18
81151;BME280;70629;-26.026;27.976;2024-02-26T03:14:46;86332.53;;;19.63;73.33
81151;BME280;70629;-26.026;27.976;2024-02-26T03:15:27;86328.94;;;19.51;73.35
81151;BME280;70629;-26.026;27.976;2024-02-26T03:16:07;86336.44;;;19.48;73.51
81151;BME280;70629;-26.026;27.976;2024-02-26T03:16:46;86336.00;;;19.66;73.15
81151;BME280;70629;-26.026;27.976;2024-02-26T03:17:26;86346.06;;;20.01;71.98
81151;BME280;70629;-26.026;27.976;2024-02-26T03:18:06;86336.50;;;20.00;71.34
81151;BME280;70629;-26.026;27.976;2024-02-26T03:18:47;86337.38;;;20.15;71.03
81151;BME280;70629;-26.026;27.976;2024-02-26T03:19:27;86335.31;;;20.13;71.23
81151;BME280;70629;-26.026;27.976;2024-02-26T03:20:08;86337.34;;;20.13;70.89
81151;BME280;70629;-26.026;27.976;2024-02-26T03:20:49;86343.06;;;19.83;70.91
81151;BME280;70629;-26.026;27.976;2024-02-26T03:21:29;86337.41;;;19.67;71.74
81151;BME280;70629;-26.026;27.976;2024-02-26T03:22:09;86338.25;;;19.80;71.69
81151;BME280;70629;-26.026;27.976;2024-02-26T03:22:49;86336.16;;;19.78;71.52
81151;BME280;70629;-26.026;27.976;2024-02-26T03:23:29;86341.56;;;19.74;72.62
81151;BME280;70629;-26.026;27.976;2024-02-26T03:24:11;86335.84;;;19.56;72.48
81151;BME280;70629;-26.026;27.976;2024-02-26T03:24:51;86340.34;;;19.39;73.22
81151;BME280;70629;-26.026;27.976;2024-02-26T03:25:31;86340.25;;;19.33;73.50
81151;BME280;70629;-26.026;27.976;2024-02-26T03:26:11;86339.44;;;19.24;73.81
81151;BME280;70629;-26.026;27.976;2024-02-26T03:26:53;86332.97;;;19.46;72.96
81151;BME280;70629;-26.026;27.976;2024-02-26T03:27:33;86339.28;;;19.56;72.88
81151;BME280;70629;-26.026;27.976;2024-02-26T03:28:13;86337.25;;;19.59;72.31